Time;durP1;ratioP1;P1;durP2;ratioP2;P2;SDS_P1;SDS_P2;PMS_P1;PMS_P2;Temp;Humidity;BMP_temperature;BMP_pressure;BME280_temperature;BME280_humidity;BME280_pressure;Samples;Min_cycle;Max_cycle;Signal;HPM_P1;HPM_P2
2021/10/10 00:01:29;;;;;;;15.55;9.38;;;;;;;4.96;100.00;95983.53;5075051;28;20167;-60
2021/10/10 00:03:55;;;;;;;15.65;10.27;;;;;;;4.88;100.00;95984.59;5040155;28;20052;-59
2021/10/10 00:06:20;;;;;;;17.85;11.23;;;;;;;4.76;100.00;95985.41;5040522;28;20032;-58
2021/10/10 00:08:46;;;;;;;18.35;9.73;;;;;;;4.68;100.00;95993.59;5040424;28;20028;-58
2021/10/10 00:11:13;;;;;;;16.33;10.18;;;;;;;4.56;100.00;95991.56;5075040;28;20032;-56
2021/10/10 00:13:39;;;;;;;15.60;9.02;;;;;;;4.47;100.00;95992.78;5074827;28;20491;-55
2021/10/10 00:16:04;;;;;;;18.83;10.20;;;;;;;4.38;100.00;95996.66;5056744;28;20111;-56
2021/10/10 00:18:30;;;;;;;18.52;10.35;;;;;;;4.28;100.00;95993.59;5057015;28;20016;-59
2021/10/10 00:20:55;;;;;;;16.40;10.30;;;;;;;4.21;100.00;95982.97;5056968;28;20514;-57
2021/10/10 00:23:23;;;;;;;17.08;10.65;;;;;;;4.18;100.00;95988.69;5074715;28;20501;-60
2021/10/10 00:25:51;;;;;;;18.85;10.80;;;;;;;4.27;100.00;95986.66;5074723;28;20108;-59
2021/10/10 00:28:21;;;;;;;18.08;11.38;;;;;;;4.35;100.00;95979.31;5056583;28;20031;-58
2021/10/10 00:30:55;;;;;;;19.30;10.75;;;;;;;4.45;100.00;95976.28;5057132;28;20135;-58
2021/10/10 00:33:20;;;;;;;20.27;11.50;;;;;;;4.50;100.00;95975.63;5057085;28;20024;-58
2021/10/10 00:35:46;;;;;;;19.08;12.10;;;;;;;4.58;100.00;95975.44;5039939;28;20028;-59
2021/10/10 00:38:11;;;;;;;17.52;11.25;;;;;;;4.60;100.00;95984.00;5056605;28;20027;-59
2021/10/10 00:40:40;;;;;;;17.70;11.85;;;;;;;4.64;100.00;95977.25;5074502;28;20051;-58
2021/10/10 00:43:06;;;;;;;19.08;12.05;;;;;;;4.68;100.00;95980.34;5074052;28;20414;-59
2021/10/10 00:45:32;;;;;;;19.45;12.43;;;;;;;4.67;100.00;95974.22;5056538;28;20048;-56
2021/10/10 00:47:58;;;;;;;21.60;12.55;;;;;;;4.61;100.00;95973.19;5056619;28;20050;-58
2021/10/10 00:50:23;;;;;;;19.98;11.93;;;;;;;4.59;100.00;95974.41;5056396;28;20556;-57
2021/10/10 00:52:54;;;;;;;22.48;12.40;;;;;;;4.56;100.00;95983.59;5074003;28;20016;-57
2021/10/10 00:55:23;;;;;;;21.88;12.02;;;;;;;4.51;100.00;95977.28;5056355;28;20395;-57
2021/10/10 00:57:50;;;;;;;21.00;11.45;;;;;;;4.46;100.00;95979.72;5073843;28;20031;-56
2021/10/10 01:00:16;;;;;;;18.50;12.02;;;;;;;4.40;100.00;95978.69;5073989;28;20028;-58
2021/10/10 01:02:58;;;;;;;17.25;11.15;;;;;;;4.34;100.00;95971.53;5073617;28;20017;-57
2021/10/10 01:05:24;;;;;;;18.13;11.70;;;;;;;4.34;100.00;95974.19;5056231;28;20024;-57
2021/10/10 01:07:53;;;;;;;18.10;10.95;;;;;;;4.31;100.00;95974.63;5055916;28;20056;-58
2021/10/10 01:10:19;;;;;;;20.92;10.75;;;;;;;4.35;100.00;95973.19;5073574;28;20047;-58
2021/10/10 01:12:45;;;;;;;18.80;11.38;;;;;;;4.36;100.00;95966.88;5039249;28;20077;-58
2021/10/10 01:15:11;;;;;;;19.40;11.00;;;;;;;4.30;100.00;95970.34;5056009;28;20487;-59
2021/10/10 01:17:42;;;;;;;18.30;10.50;;;;;;;4.26;100.00;95971.78;5055814;28;20021;-58
2021/10/10 01:20:10;;;;;;;18.30;11.55;;;;;;;4.23;100.00;95966.84;5073655;28;20028;-58
2021/10/10 01:22:36;;;;;;;18.77;10.80;;;;;;;4.20;100.00;95962.78;5055558;28;20047;-60
2021/10/10 01:25:01;;;;;;;18.08;11.65;;;;;;;4.16;100.00;95966.88;5055731;28;20056;-55
2021/10/10 01:27:27;;;;;;;21.15;11.25;;;;;;;4.11;100.00;95961.34;5038968;28;20027;-57
2021/10/10 01:29:53;;;;;;;17.98;11.05;;;;;;;4.06;100.00;95964.59;5073432;28;20032;-52
2021/10/10 01:32:18;;;;;;;18.55;11.07;;;;;;;4.04;100.00;95957.88;5055703;28;20024;-56
2021/10/10 01:34:44;;;;;;;23.98;11.32;;;;;;;4.01;100.00;95958.25;5055703;28;20059;-55
2021/10/10 01:37:11;;;;;;;18.73;11.95;;;;;;;3.95;100.00;95959.09;5055348;28;20036;-54
2021/10/10 01:39:36;;;;;;;19.15;12.00;;;;;;;3.89;100.00;95950.09;5038803;28;20391;-54
2021/10/10 01:42:02;;;;;;;19.08;12.02;;;;;;;3.82;100.00;95946.66;5055791;28;20020;-54
2021/10/10 01:44:27;;;;;;;22.70;11.77;;;;;;;3.75;100.00;95954.56;5039035;28;20024;-52
2021/10/10 01:46:57;;;;;;;17.88;11.52;;;;;;;3.69;100.00;95943.94;5055359;28;20541;-54
2021/10/10 01:49:22;;;;;;;18.92;11.18;;;;;;;3.66;100.00;95947.00;5072975;28;20040;-55
2021/10/10 01:51:48;;;;;;;20.15;11.25;;;;;;;3.62;100.00;95943.94;5055004;28;20021;-57
2021/10/10 01:54:13;;;;;;;20.20;11.23;;;;;;;3.62;100.00;95946.59;5055215;28;20060;-58
2021/10/10 01:56:41;;;;;;;19.23;10.90;;;;;;;3.59;100.00;95947.00;5055595;28;20505;-58
2021/10/10 01:59:07;;;;;;;21.95;12.57;;;;;;;3.56;100.00;95936.78;5072905;28;20024;-57
2021/10/10 02:01:32;;;;;;;21.92;11.20;;;;;;;3.51;100.00;95941.06;5072908;28;20032;-59
2021/10/10 02:03:58;;;;;;;19.00;11.50;;;;;;;3.46;100.00;95939.00;5072027;28;20054;-59
2021/10/10 02:06:26;;;;;;;18.45;11.43;;;;;;;3.39;100.00;95930.25;5054847;28;20028;-59
2021/10/10 02:08:51;;;;;;;20.02;10.70;;;;;;;3.37;100.00;95924.31;5054834;28;20017;-57
2021/10/10 02:11:17;;;;;;;19.30;11.38;;;;;;;3.38;100.00;95923.31;5031307;28;20089;-58
2021/10/10 02:13:42;;;;;;;22.20;10.82;;;;;;;3.45;100.00;95918.81;5092041;28;20394;-58
2021/10/10 02:16:07;;;;;;;18.75;11.23;;;;;;;3.48;100.00;95908.66;5092825;28;20020;-57
2021/10/10 02:18:36;;;;;;;22.88;11.55;;;;;;;3.46;100.00;95905.38;5092863;28;20549;-57
2021/10/10 02:21:01;;;;;;;23.13;11.48;;;;;;;3.52;100.00;95895.03;5092581;28;20028;-57
2021/10/10 02:23:26;;;;;;;19.33;11.52;;;;;;;3.50;100.00;95887.28;5092773;28;20035;-57
2021/10/10 02:25:52;;;;;;;18.92;12.20;;;;;;;3.49;100.00;95888.31;5058118;28;20068;-58
2021/10/10 02:28:17;;;;;;;23.05;12.02;;;;;;;3.43;100.00;95887.25;5074557;28;20070;-58
2021/10/10 02:30:43;;;;;;;20.55;12.52;;;;;;;3.40;100.00;95884.19;5074695;28;20090;-58
2021/10/10 02:33:08;;;;;;;22.50;11.80;;;;;;;3.38;100.00;95876.47;5092565;28;20024;-58
2021/10/10 02:35:34;;;;;;;21.67;11.40;;;;;;;3.34;100.00;95879.69;5092480;28;20110;-50
2021/10/10 02:38:02;;;;;;;20.30;11.85;;;;;;;3.30;100.00;95879.28;5092584;28;20012;-52
2021/10/10 02:40:31;;;;;;;19.45;11.43;;;;;;;3.25;100.00;95879.06;5092628;28;20034;-50
2021/10/10 02:43:02;;;;;;;19.85;11.38;;;;;;;3.17;100.00;95876.59;5074586;28;20058;-53
2021/10/10 02:45:34;;;;;;;18.77;11.18;;;;;;;3.05;100.00;95875.56;5074466;28;20020;-53
2021/10/10 02:47:59;;;;;;;19.15;12.07;;;;;;;2.94;100.00;95887.53;5084753;28;20032;-56
2021/10/10 02:50:25;;;;;;;21.90;12.48;;;;;;;2.84;100.00;95879.13;5054430;28;20428;-58
2021/10/10 02:52:55;;;;;;;18.35;11.07;;;;;;;2.80;100.00;95886.63;5072503;28;20475;-58
2021/10/10 02:55:23;;;;;;;21.02;12.32;;;;;;;2.76;100.00;95876.66;5054583;28;20384;-57
2021/10/10 02:57:55;;;;;;;18.08;11.00;;;;;;;2.73;100.00;95880.50;5072235;28;20027;-58
2021/10/10 03:00:20;;;;;;;23.52;12.88;;;;;;;2.78;100.00;95885.19;5037464;28;20028;-59
2021/10/10 03:02:45;;;;;;;21.55;13.10;;;;;;;2.97;100.00;95876.53;5071841;28;20017;-55
2021/10/10 03:05:17;;;;;;;24.27;12.88;;;;;;;3.04;100.00;95874.75;5054335;28;20028;-58
2021/10/10 03:07:42;;;;;;;24.35;13.45;;;;;;;3.22;100.00;95868.06;5072024;28;20108;-57
2021/10/10 03:10:23;;;;;;;22.77;13.27;;;;;;;3.40;100.00;95860.38;5072022;28;20107;-58
2021/10/10 03:12:48;;;;;;;21.95;12.95;;;;;;;3.37;100.00;95860.78;5054163;28;20530;-57
2021/10/10 03:15:16;;;;;;;24.17;14.57;;;;;;;3.32;100.00;95857.91;5074020;28;20020;-55
2021/10/10 03:17:41;;;;;;;23.88;13.60;;;;;;;3.37;100.00;95850.19;5057776;28;20016;-57
2021/10/10 03:20:25;;;;;;;24.52;14.80;;;;;;;3.51;100.00;95849.19;5076012;28;20383;-56
2021/10/10 03:22:56;;;;;;;25.75;14.60;;;;;;;3.83;100.00;95839.63;5075795;28;20060;-57
2021/10/10 03:25:22;;;;;;;26.42;15.50;;;;;;;4.11;100.00;95836.72;5041424;28;20029;-56
2021/10/10 03:27:51;;;;;;;29.23;16.60;;;;;;;4.31;100.00;95840.19;5040961;28;20075;-57
2021/10/10 03:30:22;;;;;;;30.23;16.58;;;;;;;4.37;100.00;95827.94;5075863;28;20387;-57
2021/10/10 03:32:50;;;;;;;30.63;15.95;;;;;;;4.35;100.00;95832.63;5078434;28;20605;-56
2021/10/10 03:35:16;;;;;;;30.17;16.70;;;;;;;4.35;100.00;95825.50;5077896;28;20097;-57
2021/10/10 03:37:41;;;;;;;31.80;18.00;;;;;;;4.48;100.00;95813.22;5095864;28;20020;-57
2021/10/10 03:40:09;;;;;;;31.33;17.70;;;;;;;4.45;100.00;95819.75;5077535;28;20387;-56
2021/10/10 03:42:38;;;;;;;33.35;17.27;;;;;;;4.47;100.00;95823.00;5077825;28;20117;-55
2021/10/10 03:45:05;;;;;;;31.10;18.45;;;;;;;4.51;100.00;95813.59;5095809;28;20138;-57
2021/10/10 03:47:31;;;;;;;33.58;17.83;;;;;;;4.51;100.00;95828.72;5095534;28;20043;-58
2021/10/10 03:50:00;;;;;;;29.98;18.73;;;;;;;4.51;100.00;95831.34;5077482;28;20020;-54
2021/10/10 03:52:25;;;;;;;31.23;17.52;;;;;;;4.51;100.00;95841.97;5060933;28;20027;-51
2021/10/10 03:55:13;;;;;;;34.58;18.38;;;;;;;4.52;100.00;95836.44;5077352;28;20024;-56
2021/10/10 03:57:39;;;;;;;27.98;16.77;;;;;;;4.48;100.00;95839.75;5080377;28;20028;-55
2021/10/10 04:00:08;;;;;;;31.88;17.23;;;;;;;4.55;100.00;95844.00;5077340;28;20027;-50
2021/10/10 04:02:34;;;;;;;34.53;18.08;;;;;;;4.61;100.00;95845.81;5095270;28;20035;-55
2021/10/10 04:05:04;;;;;;;28.63;17.58;;;;;;;4.59;100.00;95845.22;5095108;28;20410;-59
2021/10/10 04:07:29;;;;;;;31.65;16.83;;;;;;;4.59;100.00;95855.03;5089428;28;20024;-58
2021/10/10 04:10:00;;;;;;;30.63;16.23;;;;;;;4.56;100.00;95855.44;5057238;28;20032;-56
2021/10/10 04:12:25;;;;;;;30.65;16.10;;;;;;;4.58;100.00;95856.03;5075066;28;20063;-57
2021/10/10 04:14:54;;;;;;;27.08;15.50;;;;;;;4.58;100.00;95859.50;5057153;28;20044;-57
2021/10/10 04:17:19;;;;;;;32.85;16.23;;;;;;;4.58;100.00;95864.81;5074943;28;20383;-57
2021/10/10 04:19:44;;;;;;;28.75;16.58;;;;;;;4.57;100.00;95865.03;5057214;28;20028;-56
2021/10/10 04:22:10;;;;;;;28.30;16.65;;;;;;;4.58;100.00;95870.13;5074908;28;20028;-57
2021/10/10 04:24:35;;;;;;;25.42;15.82;;;;;;;4.58;100.00;95864.81;5074600;28;20024;-57
2021/10/10 04:27:00;;;;;;;29.63;15.80;;;;;;;4.59;100.00;95863.78;5074226;28;20445;-57
2021/10/10 04:29:32;;;;;;;32.45;16.02;;;;;;;4.62;100.00;95873.97;5056626;28;20027;-57
2021/10/10 04:32:00;;;;;;;26.88;15.68;;;;;;;4.63;100.00;95875.59;5056745;28;20024;-58
2021/10/10 04:34:29;;;;;;;29.75;16.95;;;;;;;4.68;100.00;95876.84;5040323;28;20036;-56
2021/10/10 04:36:54;;;;;;;29.27;17.33;;;;;;;4.73;100.00;95874.38;5074579;28;20028;-57
2021/10/10 04:39:23;;;;;;;28.15;16.20;;;;;;;4.81;100.00;95869.66;5056492;28;20012;-56
2021/10/10 04:41:48;;;;;;;28.75;16.58;;;;;;;4.85;100.00;95868.19;5056546;28;20025;-54
2021/10/10 04:44:13;;;;;;;27.98;16.48;;;;;;;4.92;100.00;95870.84;5039758;28;20523;-56
2021/10/10 04:46:39;;;;;;;31.55;17.98;;;;;;;4.95;100.00;95865.91;5074308;28;20475;-56
2021/10/10 04:49:04;;;;;;;29.52;17.60;;;;;;;5.00;100.00;95864.47;5056152;28;20510;-54
2021/10/10 04:51:30;;;;;;;28.35;16.50;;;;;;;5.01;100.00;95860.81;5074221;28;20031;-53
2021/10/10 04:53:58;;;;;;;26.65;17.67;;;;;;;5.02;100.00;95865.09;5074170;28;20437;-55
2021/10/10 04:56:40;;;;;;;30.40;16.52;;;;;;;5.04;100.00;95858.53;5056195;28;20513;-56
2021/10/10 04:59:05;;;;;;;25.42;16.08;;;;;;;5.06;100.00;95866.28;5056140;28;20411;-57
2021/10/10 05:01:31;;;;;;;27.98;16.10;;;;;;;5.07;100.00;95867.91;5073871;28;20020;-56
2021/10/10 05:03:56;;;;;;;29.25;16.60;;;;;;;5.07;100.00;95873.22;5078852;22;20086;-58
2021/10/10 05:06:24;;;;;;;23.90;15.75;;;;;;;5.04;100.00;95874.47;5061169;28;20500;-59
2021/10/10 05:08:49;;;;;;;22.70;14.20;;;;;;;5.02;100.00;95873.03;5070345;28;20032;-59
2021/10/10 05:11:15;;;;;;;23.48;15.40;;;;;;;4.99;100.00;95870.78;5047582;28;20024;-61
2021/10/10 05:13:40;;;;;;;27.70;14.68;;;;;;;4.97;100.00;95878.16;5055657;28;20021;-61
2021/10/10 05:16:05;;;;;;;28.05;15.35;;;;;;;4.95;100.00;95878.38;5073527;28;20099;-61
2021/10/10 05:18:31;;;;;;;36.25;18.90;;;;;;;4.93;100.00;95870.63;5073402;28;20024;-61
2021/10/10 05:20:56;;;;;;;41.00;19.60;;;;;;;4.92;100.00;95882.25;5073622;28;20029;-59
2021/10/10 05:23:22;;;;;;;35.17;18.50;;;;;;;4.89;100.00;95880.03;5073558;28;20025;-58
2021/10/10 05:25:47;;;;;;;31.15;16.42;;;;;;;4.88;100.00;95886.38;5055638;28;20021;-61
2021/10/10 05:28:12;;;;;;;32.83;16.98;;;;;;;4.88;100.00;95890.84;5055596;28;20608;-60
2021/10/10 05:30:38;;;;;;;34.28;18.25;;;;;;;4.87;100.00;95886.56;5073360;28;20024;-59
2021/10/10 05:33:03;;;;;;;30.38;16.40;;;;;;;4.88;100.00;95893.50;5055437;28;20082;-56
2021/10/10 05:35:29;;;;;;;32.35;16.42;;;;;;;4.95;100.00;95895.13;5073386;28;20028;-59
2021/10/10 05:37:54;;;;;;;28.38;16.52;;;;;;;5.02;100.00;95889.78;5054655;28;20090;-59
2021/10/10 05:40:21;;;;;;;30.30;17.52;;;;;;;5.07;100.00;95891.81;5055405;28;20122;-60
2021/10/10 05:42:47;;;;;;;33.22;16.73;;;;;;;5.11;100.00;95883.22;5055119;28;20020;-61
2021/10/10 05:45:12;;;;;;;29.83;17.30;;;;;;;5.15;100.00;95892.38;5038548;28;20083;-60
2021/10/10 05:47:37;;;;;;;25.90;16.38;;;;;;;5.18;100.00;95893.78;5073057;28;20025;-61
2021/10/10 05:50:04;;;;;;;29.33;16.65;;;;;;;5.19;100.00;95895.44;5073094;28;20032;-60
2021/10/10 05:52:30;;;;;;;28.80;16.48;;;;;;;5.21;100.00;95896.88;5060371;28;20048;-61
2021/10/10 05:54:55;;;;;;;27.13;17.25;;;;;;;5.22;100.00;95895.03;5055266;28;20086;-59
2021/10/10 05:57:25;;;;;;;27.85;16.77;;;;;;;5.25;100.00;95899.91;5055295;28;20107;-60
2021/10/10 05:59:55;;;;;;;30.05;17.60;;;;;;;5.28;100.00;95898.66;5055829;28;20024;-60
2021/10/10 06:02:20;;;;;;;28.25;16.67;;;;;;;5.26;100.00;95901.53;5056095;28;20639;-59
2021/10/10 06:04:46;;;;;;;29.27;17.23;;;;;;;5.27;100.00;95900.50;5054949;28;20045;-59
2021/10/10 06:07:11;;;;;;;25.02;16.45;;;;;;;5.30;100.00;95896.59;5055021;28;20553;-60
2021/10/10 06:09:36;;;;;;;30.67;16.70;;;;;;;5.33;100.00;95904.16;5054782;28;20391;-61
2021/10/10 06:12:02;;;;;;;26.60;16.02;;;;;;;5.34;100.00;95903.13;5055015;28;20024;-60
2021/10/10 06:14:29;;;;;;;32.58;17.58;;;;;;;5.36;100.00;95898.44;5072475;28;20102;-59
2021/10/10 06:16:54;;;;;;;29.83;16.67;;;;;;;5.37;100.00;95894.75;5038338;28;20117;-57
2021/10/10 06:19:20;;;;;;;27.35;17.23;;;;;;;5.39;100.00;95903.31;5072617;28;20044;-58
2021/10/10 06:21:48;;;;;;;28.10;16.50;;;;;;;5.40;100.00;95900.44;5072820;28;20047;-60
2021/10/10 06:24:13;;;;;;;27.75;16.65;;;;;;;5.42;100.00;95908.19;5072615;28;20024;-61
2021/10/10 06:26:38;;;;;;;29.33;16.90;;;;;;;5.42;100.00;95901.03;5072730;28;20533;-61
2021/10/10 06:29:04;;;;;;;32.20;18.38;;;;;;;5.46;100.00;95922.69;5072558;28;20063;-60
2021/10/10 06:31:29;;;;;;;30.60;17.25;;;;;;;5.49;100.00;95908.97;5054893;28;20022;-61
2021/10/10 06:33:54;;;;;;;29.45;17.05;;;;;;;5.51;100.00;95918.34;5035808;28;20032;-60
2021/10/10 06:36:20;;;;;;;27.88;16.27;;;;;;;5.52;100.00;95919.16;5038038;28;20108;-59
2021/10/10 06:38:47;;;;;;;26.80;16.38;;;;;;;5.53;100.00;95915.47;5054798;28;20012;-61
2021/10/10 06:41:12;;;;;;;27.67;16.33;;;;;;;5.55;100.00;95917.97;5072708;28;20684;-58
2021/10/10 06:43:38;;;;;;;29.48;16.65;;;;;;;5.58;100.00;95926.31;5037802;28;20028;-61
2021/10/10 06:46:03;;;;;;;31.48;16.27;;;;;;;5.59;100.00;95929.78;5060204;28;20099;-60
2021/10/10 06:48:28;;;;;;;31.33;16.02;;;;;;;5.64;100.00;95935.25;5072480;28;20111;-59
2021/10/10 06:50:56;;;;;;;25.42;15.98;;;;;;;5.65;100.00;95928.94;5054458;28;20059;-63
2021/10/10 06:53:21;;;;;;;24.90;15.48;;;;;;;5.67;100.00;95926.88;5054594;28;20028;-61
2021/10/10 06:55:47;;;;;;;26.17;15.82;;;;;;;5.68;100.00;95942.59;5072549;28;20417;-59
2021/10/10 06:58:12;;;;;;;28.52;16.25;;;;;;;5.72;100.00;95938.47;5066695;28;20024;-57
2021/10/10 07:00:38;;;;;;;24.40;15.55;;;;;;;5.73;100.00;95942.78;5052618;28;20467;-55
2021/10/10 07:03:03;;;;;;;25.25;15.32;;;;;;;5.79;100.00;95944.59;5072728;28;20032;-61
2021/10/10 07:05:28;;;;;;;21.73;14.27;;;;;;;5.81;100.00;95942.53;5054501;28;20088;-61
2021/10/10 07:07:54;;;;;;;23.00;14.98;;;;;;;5.83;100.00;95945.78;5054541;28;20050;-61
2021/10/10 07:10:19;;;;;;;24.88;14.60;;;;;;;5.88;100.00;95942.50;5068249;28;20054;-58
2021/10/10 07:12:44;;;;;;;25.77;15.20;;;;;;;5.92;100.00;95948.22;5071230;28;20389;-61
2021/10/10 07:15:12;;;;;;;25.40;14.32;;;;;;;5.92;100.00;95932.28;5071281;28;20059;-59
2021/10/10 07:17:37;;;;;;;23.85;14.55;;;;;;;5.96;100.00;95947.56;5054788;28;20024;-61
2021/10/10 07:20:17;;;;;;;24.80;14.63;;;;;;;5.99;100.00;95949.00;5049076;28;20082;-59
2021/10/10 07:25:09;;;;;;;22.45;14.00;;;;;;;6.09;100.00;95946.69;5072667;28;20033;-60
2021/10/10 07:27:39;;;;;;;22.70;13.82;;;;;;;6.18;100.00;95948.03;5072666;28;20020;-61
2021/10/10 07:30:09;;;;;;;22.30;13.10;;;;;;;6.20;100.00;95951.31;5053622;28;20108;-60
2021/10/10 07:32:34;;;;;;;23.50;14.15;;;;;;;6.23;100.00;95955.38;5072689;28;20033;-60
2021/10/10 07:35:01;;;;;;;23.98;14.10;;;;;;;6.28;100.00;95950.22;5054516;28;20479;-63
2021/10/10 07:37:26;;;;;;;22.98;13.48;;;;;;;6.32;100.00;95960.22;5054094;28;20058;-60
2021/10/10 07:39:52;;;;;;;20.63;12.98;;;;;;;6.36;100.00;95957.94;5046242;28;20025;-61
2021/10/10 07:42:18;;;;;;;22.38;13.40;;;;;;;6.39;100.00;95952.97;5044997;28;20436;-59
2021/10/10 07:44:48;;;;;;;24.45;13.73;;;;;;;6.42;100.00;95950.94;5035647;28;20024;-60
2021/10/10 07:49:49;;;;;;;22.25;13.63;;;;;;;6.46;100.00;95944.97;5047144;28;20074;-57
2021/10/10 07:52:15;;;;;;;21.30;13.82;;;;;;;6.50;100.00;95947.97;5033787;28;20025;-60
2021/10/10 07:54:41;;;;;;;23.15;12.98;;;;;;;6.52;100.00;95948.59;5071530;28;20024;-59
2021/10/10 07:57:10;;;;;;;26.08;12.95;;;;;;;6.49;100.00;95941.84;5053819;28;20024;-60
2021/10/10 07:59:39;;;;;;;25.25;13.60;;;;;;;6.49;100.00;95941.84;5050738;28;20032;-59
2021/10/10 08:02:06;;;;;;;18.95;12.57;;;;;;;6.56;100.00;95952.44;5072083;28;20498;-60
2021/10/10 08:04:32;;;;;;;20.77;12.65;;;;;;;6.60;100.00;95949.13;5057162;28;20060;-60
2021/10/10 08:06:57;;;;;;;21.83;12.77;;;;;;;6.57;100.00;95943.44;5075035;28;20016;-61
2021/10/10 08:09:23;;;;;;;21.58;12.00;;;;;;;6.62;100.00;95939.09;5057222;28;20029;-59
2021/10/10 08:11:50;;;;;;;19.70;12.45;;;;;;;6.69;100.00;95939.00;5057084;28;20020;-58
2021/10/10 08:14:16;;;;;;;19.95;12.07;;;;;;;6.71;100.00;95938.78;5057268;28;20028;-61
2021/10/10 08:16:42;;;;;;;21.10;13.23;;;;;;;6.66;100.00;95939.47;5074958;28;20459;-60
2021/10/10 08:19:11;;;;;;;20.88;12.13;;;;;;;6.68;100.00;95930.22;5057018;28;20111;-61
2021/10/10 08:21:44;;;;;;;22.70;13.15;;;;;;;6.73;100.00;95939.38;5020653;28;20033;-62
2021/10/10 08:24:12;;;;;;;22.20;12.82;;;;;;;6.72;100.00;95927.91;5061814;28;20032;-60
2021/10/10 08:26:38;;;;;;;20.83;12.98;;;;;;;6.74;100.00;95927.72;5074701;28;20029;-62
2021/10/10 08:29:03;;;;;;;22.20;13.00;;;;;;;6.77;100.00;95925.44;5074652;28;20020;-62
2021/10/10 08:31:29;;;;;;;19.92;12.13;;;;;;;6.78;100.00;95916.41;5056743;28;20021;-60
2021/10/10 08:33:57;;;;;;;19.17;12.20;;;;;;;6.85;100.00;95919.00;5074593;28;20230;-59
2021/10/10 08:36:29;;;;;;;18.92;12.02;;;;;;;6.92;100.00;95915.22;5056634;28;20028;-61
2021/10/10 08:39:00;;;;;;;17.02;11.38;;;;;;;6.99;100.00;95909.84;5074684;28;20032;-61
2021/10/10 08:41:31;;;;;;;18.70;12.07;;;;;;;7.00;100.00;95908.78;5039129;28;20034;-60
2021/10/10 08:44:15;;;;;;;20.52;11.80;;;;;;;7.02;100.00;95909.38;5057040;28;20024;-62
2021/10/10 08:46:46;;;;;;;20.13;11.70;;;;;;;7.13;100.00;95907.81;5057378;28;20063;-60
2021/10/10 08:49:29;;;;;;;19.65;12.25;;;;;;;7.12;100.00;95895.53;5056375;28;20032;-61
2021/10/10 08:52:07;;;;;;;21.23;12.50;;;;;;;7.17;100.00;95890.38;5056309;28;20028;-61
2021/10/10 08:54:35;;;;;;;17.63;11.13;;;;;;;7.16;100.00;95881.56;5074180;28;20090;-61
2021/10/10 08:57:02;;;;;;;19.40;12.05;;;;;;;7.26;100.00;95881.81;5074349;28;20378;-61
2021/10/10 08:59:34;;;;;;;15.80;10.85;;;;;;;7.26;100.00;95871.16;5056311;28;20025;-58
2021/10/10 09:02:03;;;;;;;19.20;11.85;;;;;;;7.29;100.00;95858.47;5074259;28;20028;-59
2021/10/10 09:04:38;;;;;;;18.23;11.35;;;;;;;7.39;100.00;95851.56;5039402;28;20458;-56
2021/10/10 09:07:03;;;;;;;17.40;11.40;;;;;;;7.43;100.00;95838.56;5073958;28;20048;-61
2021/10/10 09:09:32;;;;;;;16.55;11.10;;;;;;;7.53;100.00;95836.19;5055781;28;20051;-55
2021/10/10 09:12:07;;;;;;;19.63;11.93;;;;;;;7.60;100.00;95820.06;5055726;28;20028;-58
2021/10/10 09:14:45;;;;;;;19.85;11.07;;;;;;;7.63;100.00;95808.97;5043665;28;20078;-57
2021/10/10 09:17:17;;;;;;;20.23;11.43;;;;;;;7.60;100.00;95801.41;5055687;28;20547;-60
2021/10/10 09:19:52;;;;;;;18.98;12.65;;;;;;;7.57;100.00;95808.81;5055740;28;20111;-55
2021/10/10 09:22:20;;;;;;;18.23;11.40;;;;;;;7.55;100.00;95794.09;5055595;28;20085;-58
2021/10/10 09:24:46;;;;;;;19.25;11.68;;;;;;;7.57;100.00;95784.03;5073552;28;20360;-58
2021/10/10 09:27:22;;;;;;;18.42;10.45;;;;;;;7.60;100.00;95774.75;5055486;28;20024;-61
2021/10/10 09:29:51;;;;;;;20.83;11.18;;;;;;;7.72;100.00;95757.75;5073486;28;20099;-60
2021/10/10 09:32:22;;;;;;;16.42;10.93;;;;;;;7.85;100.00;95748.72;5035405;28;20037;-60
2021/10/10 09:34:50;;;;;;;16.27;10.60;;;;;;;7.94;100.00;95734.00;5049657;28;20031;-62
2021/10/10 09:37:45;;;;;;;17.48;10.65;;;;;;;8.06;100.00;95725.97;5055268;28;20030;-60
2021/10/10 09:40:29;;;;;;;16.83;10.63;;;;;;;8.21;100.00;95699.63;5073115;28;20068;-58
2021/10/10 09:43:03;;;;;;;19.45;11.32;;;;;;;8.32;100.00;95681.97;5055293;28;20356;-58
2021/10/10 09:45:41;;;;;;;17.13;10.68;;;;;;;8.39;100.00;95662.13;5055316;28;20494;-58
2021/10/10 09:48:07;;;;;;;16.42;11.38;;;;;;;8.43;100.00;95649.94;5056569;28;20040;-56
2021/10/10 09:50:34;;;;;;;19.30;11.85;;;;;;;8.54;100.00;95636.78;5035289;28;20111;-60
2021/10/10 09:53:05;;;;;;;21.38;11.95;;;;;;;8.60;100.00;95622.47;5052114;28;20031;-60
2021/10/10 09:55:53;;;;;;;19.67;11.18;;;;;;;8.71;100.00;95614.41;5055524;28;20028;-61
2021/10/10 09:58:38;;;;;;;18.77;10.57;;;;;;;8.79;100.00;95593.69;5072952;28;20023;-60
2021/10/10 10:01:19;;;;;;;18.10;11.43;;;;;;;8.86;100.00;95583.66;5066964;28;20227;-60
2021/10/10 10:03:57;;;;;;;22.27;11.80;;;;;;;8.93;100.00;95573.66;5051715;28;20398;-61
2021/10/10 10:06:23;;;;;;;19.65;11.90;;;;;;;8.95;100.00;95572.34;5054868;28;20032;-61
2021/10/10 10:08:49;;;;;;;19.65;11.63;;;;;;;9.00;100.00;95569.75;5054688;28;20031;-60
2021/10/10 10:11:17;;;;;;;17.60;10.90;;;;;;;9.00;100.00;95556.38;5072782;28;20028;-57
2021/10/10 10:13:45;;;;;;;19.40;11.30;;;;;;;8.90;100.00;95560.75;5072492;28;20099;-57
2021/10/10 10:16:15;;;;;;;17.35;10.20;;;;;;;8.94;100.00;95561.91;5054461;28;20105;-61
2021/10/10 10:18:41;;;;;;;16.05;11.02;;;;;;;8.98;100.00;95563.03;5054543;28;20025;-60
2021/10/10 10:21:08;;;;;;;16.42;11.40;;;;;;;8.97;100.00;95561.41;5054520;28;20017;-61
2021/10/10 10:23:39;;;;;;;15.50;10.45;;;;;;;9.02;100.00;95558.03;5048303;28;20119;-59
2021/10/10 10:26:04;;;;;;;18.63;11.13;;;;;;;8.88;100.00;95563.66;5049726;28;20020;-60
2021/10/10 10:28:32;;;;;;;16.25;10.90;;;;;;;8.96;100.00;95573.97;5069373;28;20099;-59
2021/10/10 10:30:59;;;;;;;16.92;10.00;;;;;;;9.02;100.00;95579.41;5054329;28;20099;-60
2021/10/10 10:33:32;;;;;;;16.30;11.23;;;;;;;8.98;100.00;95587.06;5054442;28;20024;-61
2021/10/10 10:35:57;;;;;;;16.23;10.98;;;;;;;8.92;100.00;95590.72;5067227;28;20052;-60
2021/10/10 10:38:42;;;;;;;16.52;10.35;;;;;;;8.89;100.00;95594.69;5037699;28;20110;-61
2021/10/10 10:41:48;;;;;;;16.70;10.27;;;;;;;8.95;100.00;95601.75;5067816;28;20021;-59
2021/10/10 10:44:35;;;;;;;16.42;10.90;;;;;;;9.00;100.00;95604.47;5043269;28;20026;-62
2021/10/10 10:47:09;;;;;;;20.88;11.10;;;;;;;9.07;100.00;95620.38;5057265;28;20029;-62
2021/10/10 10:50:09;;;;;;;16.05;10.68;;;;;;;9.27;100.00;95612.69;5065105;28;20183;-59
2021/10/10 10:52:38;;;;;;;17.85;11.10;;;;;;;8.96;100.00;95627.41;5039967;28;20616;-61
2021/10/10 10:55:17;;;;;;;15.05;9.90;;;;;;;8.78;100.00;95632.94;5069681;28;20020;-59
2021/10/10 10:57:53;;;;;;;17.83;10.15;;;;;;;8.88;100.00;95645.69;5052397;28;20545;-60
2021/10/10 11:00:26;;;;;;;16.00;10.77;;;;;;;8.84;100.00;95647.22;5032616;28;20029;-60
2021/10/10 11:02:57;;;;;;;17.75;11.15;;;;;;;8.91;100.00;95646.03;5069841;28;20107;-57
2021/10/10 11:05:38;;;;;;;15.60;10.43;;;;;;;9.05;100.00;95659.88;5069149;22;20054;-62
2021/10/10 11:08:07;;;;;;;19.95;10.50;;;;;;;9.17;100.00;95654.47;5020099;28;20557;-62
2021/10/10 11:10:33;;;;;;;17.25;10.88;;;;;;;9.63;100.00;95664.03;5036825;28;20124;-62
2021/10/10 11:13:05;;;;;;;17.00;10.00;;;;;;;10.04;100.00;95667.31;5011755;28;20506;-62
2021/10/10 11:15:56;;;;;;;16.40;10.68;;;;;;;10.39;100.00;95675.81;5036582;28;20433;-62
2021/10/10 11:18:27;;;;;;;14.57;9.95;;;;;;;10.38;100.00;95709.00;5016260;28;20044;-63
2021/10/10 11:20:57;;;;;;;16.38;10.60;;;;;;;10.89;100.00;95711.50;5036539;28;20037;-63
2021/10/10 11:23:23;;;;;;;17.42;10.65;;;;;;;11.38;100.00;95720.31;5014732;28;20029;-63
2021/10/10 11:25:50;;;;;;;15.85;10.60;;;;;;;11.42;100.00;95756.31;5031974;28;20027;-63
2021/10/10 11:28:17;;;;;;;15.18;10.60;;;;;;;11.41;100.00;95791.44;5014913;28;20029;-61